createdAt,value
2019-05-30T00:00:19.573Z,12.50
2019-05-30T00:02:49.241Z,12.50
2019-05-30T00:05:18.528Z,12.40
2019-05-30T00:07:47.960Z,12.30
2019-05-30T00:10:17.356Z,12.30
2019-05-30T00:12:46.652Z,12.30
2019-05-30T00:15:16.081Z,12.20
2019-05-30T00:17:45.384Z,12.10
2019-05-30T00:20:14.791Z,12.00
2019-05-30T00:22:44.048Z,11.90
2019-05-30T00:25:13.524Z,11.80
2019-05-30T00:27:42.898Z,11.60
2019-05-30T00:30:23.848Z,11.50
2019-05-30T00:32:43.177Z,11.50
2019-05-30T00:35:12.648Z,11.50
2019-05-30T00:37:41.968Z,11.50
2019-05-30T00:40:11.433Z,11.40
2019-05-30T00:42:40.706Z,11.40
2019-05-30T00:45:21.026Z,11.50
2019-05-30T00:47:42.492Z,11.60
2019-05-30T00:50:12.012Z,11.60
2019-05-30T00:52:41.384Z,11.70
2019-05-30T00:55:10.812Z,11.70
2019-05-30T00:57:40.120Z,11.70
2019-05-30T01:00:09.615Z,11.70
2019-05-30T01:02:38.962Z,11.70
2019-05-30T01:05:08.627Z,11.70
2019-05-30T01:07:37.879Z,11.60
2019-05-30T01:10:08.840Z,11.60
2019-05-30T01:12:38.131Z,11.60
2019-05-30T01:15:07.846Z,11.50
2019-05-30T01:17:37.118Z,11.40
2019-05-30T01:20:07.488Z,11.40
2019-05-30T01:22:37.017Z,11.40
2019-05-30T01:25:07.862Z,11.30
2019-05-30T01:27:37.427Z,11.20
2019-05-30T01:30:08.598Z,11.10
2019-05-30T01:32:37.864Z,11.10
2019-05-30T01:35:08.663Z,11.10
2019-05-30T01:37:38.842Z,11.10
2019-05-30T01:40:09.130Z,11.00
2019-05-30T01:42:38.523Z,10.90
2019-05-30T01:45:08.585Z,10.80
2019-05-30T01:47:38.231Z,10.80
2019-05-30T01:50:09.043Z,10.70
2019-05-30T01:52:38.315Z,10.70
2019-05-30T01:55:08.974Z,10.60
2019-05-30T01:57:39.292Z,10.60
2019-05-30T02:00:20.304Z,10.50
2019-05-30T02:02:40.527Z,10.50
2019-05-30T02:05:10.554Z,10.50
2019-05-30T02:07:39.858Z,10.40
2019-05-30T02:10:10.054Z,10.40
2019-05-30T02:12:39.558Z,10.30
2019-05-30T02:15:10.044Z,10.20
2019-05-30T02:17:39.431Z,10.20
2019-05-30T02:20:10.185Z,10.20
2019-05-30T02:22:39.737Z,10.20
2019-05-30T02:25:10.242Z,10.10
2019-05-30T02:27:39.783Z,10.00
2019-05-30T02:30:12.408Z,9.90
2019-05-30T02:32:40.900Z,9.90
2019-05-30T02:35:12.282Z,9.80
2019-05-30T02:37:41.339Z,9.80
2019-05-30T02:40:14.829Z,9.70
2019-05-30T02:42:41.827Z,9.70
2019-05-30T02:45:12.552Z,9.70
2019-05-30T02:47:42.097Z,9.70
2019-05-30T02:50:14.011Z,9.70
2019-05-30T02:52:42.987Z,9.80
2019-05-30T02:55:13.408Z,9.70
2019-05-30T02:57:43.329Z,9.80
2019-05-30T03:00:17.138Z,9.80
2019-05-30T03:02:43.743Z,9.70
2019-05-30T03:05:15.152Z,9.70
2019-05-30T03:07:44.037Z,9.70
2019-05-30T03:10:15.073Z,9.70
2019-05-30T03:12:44.727Z,9.70
2019-05-30T03:15:15.636Z,9.70
2019-05-30T03:17:45.349Z,9.80
2019-05-30T03:20:22.561Z,9.80
2019-05-30T03:22:45.975Z,9.90
2019-05-30T03:25:16.241Z,9.90
2019-05-30T03:27:45.770Z,9.90
2019-05-30T03:30:26.034Z,9.90
2019-05-30T03:33:15.375Z,9.90
2019-05-30T03:35:27.403Z,9.80
2019-05-30T03:37:49.462Z,9.80
2019-05-30T03:40:21.293Z,9.70
2019-05-30T03:42:50.479Z,9.60
2019-05-30T03:45:19.852Z,9.60
2019-05-30T03:47:52.981Z,9.60
2019-05-30T03:50:25.355Z,9.60
2019-05-30T03:52:54.850Z,9.50
2019-05-30T03:55:25.442Z,9.50
2019-05-30T03:58:01.594Z,9.50
2019-05-30T04:00:40.274Z,9.70
2019-05-30T04:03:24.522Z,9.70
2019-05-30T04:05:57.641Z,9.80
2019-05-30T04:08:30.045Z,9.90
2019-05-30T04:11:02.326Z,9.80
2019-05-30T04:13:41.833Z,9.80
2019-05-30T04:16:11.930Z,9.90
2019-05-30T04:18:42.341Z,9.90
2019-05-30T04:21:14.091Z,10.00
2019-05-30T04:23:42.695Z,10.10
2019-05-30T04:26:13.590Z,10.10
2019-05-30T04:28:43.006Z,10.10
2019-05-30T04:31:12.573Z,10.20
2019-05-30T04:33:43.374Z,10.20
2019-05-30T04:36:14.387Z,10.20
2019-05-30T04:38:43.827Z,10.20
2019-05-30T04:41:13.643Z,10.30
2019-05-30T04:43:44.132Z,10.30
2019-05-30T04:46:14.941Z,10.40
2019-05-30T04:48:44.605Z,10.40
2019-05-30T04:51:14.575Z,10.50
2019-05-30T04:53:44.821Z,10.60
2019-05-30T04:56:16.869Z,10.60
2019-05-30T04:58:45.949Z,10.70
2019-05-30T05:01:15.558Z,10.70
2019-05-30T05:03:47.060Z,10.70
2019-05-30T05:06:17.880Z,10.80
2019-05-30T05:08:47.279Z,10.80
2019-05-30T05:11:19.265Z,10.80
2019-05-30T05:13:47.519Z,10.90
2019-05-30T05:16:29.782Z,11.00
2019-05-30T05:18:47.829Z,11.00
2019-05-30T05:21:17.153Z,11.00
2019-05-30T05:23:46.443Z,11.10
2019-05-30T05:26:15.845Z,11.10
2019-05-30T05:28:45.228Z,11.20
2019-05-30T05:31:14.542Z,11.20
2019-05-30T05:33:56.332Z,11.30
2019-05-30T05:36:14.916Z,11.30
2019-05-30T05:38:44.279Z,11.30
2019-05-30T05:41:13.647Z,11.40
2019-05-30T05:43:42.951Z,11.40
2019-05-30T05:46:12.355Z,11.50
2019-05-30T05:48:41.725Z,11.50
2019-05-30T05:51:11.032Z,11.50
2019-05-30T05:53:40.336Z,11.50
2019-05-30T05:56:09.667Z,11.60
2019-05-30T05:58:38.909Z,11.60
2019-05-30T06:01:08.294Z,11.70
2019-05-30T06:03:37.623Z,11.70
2019-05-30T06:06:07.022Z,11.70
2019-05-30T06:08:36.319Z,11.80
2019-05-30T06:11:05.614Z,11.80
2019-05-30T06:13:34.930Z,11.80
2019-05-30T06:16:04.224Z,11.90
2019-05-30T06:18:33.543Z,11.90
2019-05-30T06:21:02.947Z,12.00
2019-05-30T06:23:32.279Z,12.00
2019-05-30T06:26:01.667Z,12.10
2019-05-30T06:28:31.039Z,12.10
2019-05-30T06:31:00.310Z,12.10
2019-05-30T06:33:29.594Z,12.20
2019-05-30T06:35:58.870Z,12.20
2019-05-30T06:38:29.424Z,12.30
2019-05-30T06:40:58.894Z,12.30
2019-05-30T06:43:28.312Z,12.30
2019-05-30T06:45:57.558Z,12.40
2019-05-30T06:48:26.976Z,12.40
2019-05-30T06:50:56.307Z,12.40
2019-05-30T06:53:25.646Z,12.50
2019-05-30T06:55:54.984Z,12.50
2019-05-30T06:58:41.472Z,12.50
2019-05-30T07:00:55.651Z,12.50
2019-05-30T07:03:26.251Z,12.60
2019-05-30T07:05:56.125Z,12.60
2019-05-30T07:08:26.758Z,12.60
2019-05-30T07:10:56.119Z,12.60
2019-05-30T07:13:25.528Z,12.70
2019-05-30T07:15:54.858Z,12.70
2019-05-30T07:18:25.334Z,12.70
2019-05-30T07:20:54.726Z,12.80
2019-05-30T07:23:24.096Z,12.80
2019-05-30T07:25:53.485Z,12.80
2019-05-30T07:28:23.819Z,12.80
2019-05-30T07:30:53.213Z,12.90
2019-05-30T07:33:23.843Z,12.90
2019-05-30T07:35:53.357Z,12.90
2019-05-30T07:38:22.677Z,12.90
2019-05-30T07:40:51.985Z,13.00
2019-05-30T07:43:24.800Z,13.00
2019-05-30T07:45:57.983Z,13.00
2019-05-30T07:48:23.234Z,13.00
2019-05-30T07:50:52.531Z,13.00
2019-05-30T07:53:21.844Z,13.10
2019-05-30T07:55:51.126Z,13.10
2019-05-30T07:58:20.520Z,13.10
2019-05-30T08:00:49.919Z,13.10
2019-05-30T08:03:19.242Z,13.20
2019-05-30T08:05:48.562Z,13.20
2019-05-30T08:08:17.939Z,13.20
2019-05-30T08:10:47.235Z,13.30
2019-05-30T08:13:16.512Z,13.30
2019-05-30T08:15:45.851Z,13.30
2019-05-30T08:18:15.157Z,13.30
2019-05-30T08:20:44.481Z,13.30
2019-05-30T08:23:13.788Z,13.40
2019-05-30T08:25:43.116Z,13.40
2019-05-30T08:28:12.362Z,13.40
2019-05-30T08:30:41.746Z,13.50
2019-05-30T08:33:11.029Z,13.50
2019-05-30T08:35:49.283Z,13.50
2019-05-30T08:38:11.557Z,13.50
2019-05-30T08:40:40.992Z,13.50
2019-05-30T08:43:10.368Z,13.60
2019-05-30T08:45:39.981Z,13.60
2019-05-30T08:48:09.377Z,13.60
2019-05-30T08:50:42.514Z,13.60
2019-05-30T08:53:09.668Z,13.70
2019-05-30T08:55:38.936Z,13.70
2019-05-30T08:58:08.264Z,13.70
2019-05-30T09:00:37.585Z,13.70
2019-05-30T09:03:06.845Z,13.80
2019-05-30T09:05:36.153Z,13.80
2019-05-30T09:08:05.440Z,13.80
2019-05-30T09:10:35.953Z,13.80
2019-05-30T09:13:05.652Z,13.90
2019-05-30T09:15:34.945Z,13.90
2019-05-30T09:18:04.240Z,14.00
2019-05-30T09:20:33.659Z,14.00
2019-05-30T09:23:02.995Z,14.00
2019-05-30T09:25:32.419Z,14.10
2019-05-30T09:28:01.743Z,14.20
2019-05-30T09:30:31.084Z,14.20
2019-05-30T09:33:00.396Z,14.30
2019-05-30T09:35:29.737Z,14.30
2019-05-30T09:37:59.051Z,14.30
2019-05-30T09:40:28.536Z,14.30
2019-05-30T09:42:57.928Z,14.30
2019-05-30T09:45:27.619Z,14.40
2019-05-30T09:47:56.932Z,14.40
2019-05-30T09:50:26.288Z,14.40
2019-05-30T09:52:55.608Z,14.40
2019-05-30T09:55:25.309Z,14.50
2019-05-30T09:57:54.586Z,14.50
2019-05-30T10:00:24.562Z,14.50
2019-05-30T10:02:53.849Z,14.60
2019-05-30T10:05:25.083Z,14.60
2019-05-30T10:07:54.502Z,14.60
2019-05-30T10:10:23.951Z,14.70
2019-05-30T10:12:53.255Z,14.70
2019-05-30T10:15:22.975Z,14.80
2019-05-30T10:17:54.245Z,14.80
2019-05-30T10:20:23.283Z,14.80
2019-05-30T10:22:53.799Z,14.90
2019-05-30T10:25:23.460Z,14.90
2019-05-30T10:27:54.579Z,15.00
2019-05-30T10:30:24.839Z,15.00
2019-05-30T10:32:54.619Z,15.10
2019-05-30T10:35:25.155Z,15.10
2019-05-30T10:37:54.467Z,15.20
2019-05-30T10:40:23.816Z,15.20
2019-05-30T10:42:54.739Z,15.30
2019-05-30T10:45:24.789Z,15.40
2019-05-30T10:47:54.111Z,15.40
2019-05-30T10:50:24.104Z,15.50
2019-05-30T10:52:53.598Z,15.50
2019-05-30T10:55:24.687Z,15.60
2019-05-30T10:57:57.511Z,15.70
2019-05-30T11:00:41.755Z,15.70
2019-05-30T11:03:11.039Z,15.70
2019-05-30T11:05:40.350Z,15.80
2019-05-30T11:08:13.097Z,15.90
2019-05-30T11:10:42.957Z,16.10
2019-05-30T11:13:13.966Z,16.60
2019-05-30T11:15:43.463Z,17.50
2019-05-30T11:18:13.077Z,18.40
2019-05-30T11:20:43.007Z,19.30
2019-05-30T11:23:12.267Z,20.00
2019-05-30T11:25:41.974Z,20.70
2019-05-30T11:28:11.394Z,21.20
2019-05-30T11:30:40.793Z,21.70
2019-05-30T11:33:10.032Z,22.00
2019-05-30T11:35:39.327Z,22.30
2019-05-30T11:38:08.710Z,22.70
2019-05-30T11:40:38.081Z,23.10
2019-05-30T11:43:07.421Z,23.40
2019-05-30T11:45:36.749Z,23.60
2019-05-30T11:48:06.434Z,23.90
2019-05-30T11:50:35.736Z,24.30
2019-05-30T11:53:05.030Z,24.40
2019-05-30T11:55:34.337Z,24.60
2019-05-30T11:58:03.585Z,24.70
2019-05-30T12:00:33.073Z,24.80
2019-05-30T12:03:02.461Z,25.10
2019-05-30T12:05:31.814Z,25.40
2019-05-30T12:08:01.152Z,25.60
2019-05-30T12:10:30.538Z,25.80
2019-05-30T12:13:01.484Z,26.00
2019-05-30T12:15:31.117Z,26.20
2019-05-30T12:18:02.301Z,26.30
2019-05-30T12:20:31.537Z,26.50
2019-05-30T12:23:02.130Z,26.50
2019-05-30T12:25:31.597Z,26.70
2019-05-30T12:28:03.710Z,26.90
2019-05-30T12:30:32.134Z,27.10
2019-05-30T12:33:02.485Z,27.50
2019-05-30T12:35:31.972Z,27.60
2019-05-30T12:38:04.590Z,27.70
2019-05-30T12:40:32.301Z,27.80
2019-05-30T12:43:04.548Z,27.80
2019-05-30T12:45:32.705Z,27.90
2019-05-30T12:48:04.151Z,28.00
2019-05-30T12:50:33.038Z,28.20
2019-05-30T12:53:02.321Z,28.50
2019-05-30T12:55:31.705Z,28.70
2019-05-30T12:58:01.041Z,29.10
2019-05-30T13:00:31.082Z,29.50
2019-05-30T13:03:00.858Z,29.80
2019-05-30T13:05:30.188Z,29.90
2019-05-30T13:08:14.442Z,30.00
2019-05-30T13:10:30.530Z,30.00
2019-05-30T13:12:59.794Z,29.90
2019-05-30T13:15:29.187Z,29.90
2019-05-30T13:17:58.868Z,30.00
2019-05-30T13:20:28.458Z,30.00
2019-05-30T13:22:58.458Z,30.10
2019-05-30T13:25:28.006Z,30.10
2019-05-30T13:27:57.761Z,30.40
2019-05-30T13:30:28.099Z,30.60
2019-05-30T13:32:58.471Z,30.80
2019-05-30T13:35:27.827Z,30.90
2019-05-30T13:37:57.162Z,31.00
2019-05-30T13:40:26.544Z,31.10
2019-05-30T13:42:55.927Z,31.30
2019-05-30T13:45:25.552Z,31.40
2019-05-30T13:47:54.977Z,31.60
2019-05-30T13:50:24.238Z,31.70
2019-05-30T13:52:53.614Z,31.70
2019-05-30T13:55:23.215Z,31.80
2019-05-30T13:57:52.533Z,31.80
2019-05-30T14:00:22.033Z,31.80
2019-05-30T14:02:51.382Z,31.90
2019-05-30T14:05:20.672Z,32.10
2019-05-30T14:07:50.064Z,32.20
2019-05-30T14:10:19.567Z,32.40
2019-05-30T14:12:48.968Z,32.50
2019-05-30T14:15:18.424Z,32.60
2019-05-30T14:17:47.785Z,32.70
2019-05-30T14:20:18.003Z,32.80
2019-05-30T14:22:47.313Z,32.60
2019-05-30T14:25:16.991Z,32.30
2019-05-30T14:27:46.373Z,32.20
2019-05-30T14:30:15.926Z,32.20
2019-05-30T14:32:45.268Z,32.20
2019-05-30T14:35:15.861Z,32.20
2019-05-30T14:37:45.275Z,32.20
2019-05-30T14:40:15.511Z,32.30
2019-05-30T14:42:44.853Z,32.50
2019-05-30T14:45:16.663Z,32.40
2019-05-30T14:47:46.208Z,32.50
2019-05-30T14:50:17.330Z,32.50
2019-05-30T14:52:47.366Z,32.60
2019-05-30T14:55:17.527Z,32.60
2019-05-30T14:57:47.375Z,32.60
2019-05-30T15:00:18.074Z,32.60
2019-05-30T15:02:47.388Z,32.60
2019-05-30T15:05:18.172Z,32.50
2019-05-30T15:07:47.539Z,32.40
2019-05-30T15:10:17.371Z,32.20
2019-05-30T15:12:46.651Z,31.90
2019-05-30T15:15:18.707Z,31.50
2019-05-30T15:17:47.775Z,31.30
2019-05-30T15:20:17.992Z,31.00
2019-05-30T15:22:47.458Z,30.80
2019-05-30T15:25:18.128Z,30.80
2019-05-30T15:27:47.595Z,30.80
2019-05-30T15:30:18.664Z,30.90
2019-05-30T15:32:47.941Z,30.90
2019-05-30T15:35:19.151Z,31.00
2019-05-30T15:37:48.678Z,30.90
2019-05-30T15:40:18.318Z,30.60
2019-05-30T15:42:47.670Z,30.20
2019-05-30T15:45:18.175Z,30.00
2019-05-30T15:47:47.558Z,29.80
2019-05-30T15:50:18.782Z,29.80
2019-05-30T15:52:48.714Z,29.80
2019-05-30T15:55:22.945Z,29.80
2019-05-30T15:57:50.470Z,30.00
2019-05-30T16:00:22.294Z,30.20
2019-05-30T16:02:51.643Z,30.40
2019-05-30T16:05:21.153Z,30.40
2019-05-30T16:07:50.482Z,30.40
2019-05-30T16:10:21.082Z,30.40
2019-05-30T16:12:50.617Z,30.40
2019-05-30T16:15:19.934Z,30.50
2019-05-30T16:17:49.218Z,30.50
2019-05-30T16:20:19.936Z,30.50
2019-05-30T16:22:49.438Z,30.50
2019-05-30T16:25:19.674Z,30.50
2019-05-30T16:27:49.142Z,30.50
2019-05-30T16:30:22.423Z,30.50
2019-05-30T16:32:49.593Z,30.50
2019-05-30T16:35:20.103Z,30.50
2019-05-30T16:37:49.545Z,30.40
2019-05-30T16:40:20.337Z,30.20
2019-05-30T16:42:49.622Z,30.10
2019-05-30T16:45:23.179Z,30.10
2019-05-30T16:47:50.022Z,30.20
2019-05-30T16:50:22.849Z,30.30
2019-05-30T16:52:52.232Z,30.40
2019-05-30T16:55:21.744Z,30.40
2019-05-30T16:57:51.136Z,30.30
2019-05-30T17:00:21.843Z,30.10
2019-05-30T17:02:51.296Z,29.90
2019-05-30T17:05:20.662Z,29.90
2019-05-30T17:07:50.092Z,29.80
2019-05-30T17:10:27.692Z,29.70
2019-05-30T17:12:50.409Z,29.50
2019-05-30T17:15:20.034Z,29.40
2019-05-30T17:17:49.435Z,29.30
2019-05-30T17:20:18.749Z,29.10
2019-05-30T17:22:48.001Z,29.00
2019-05-30T17:25:17.459Z,28.80
2019-05-30T17:27:46.752Z,28.70
2019-05-30T17:30:17.415Z,28.60
2019-05-30T17:32:46.784Z,28.50
2019-05-30T17:35:16.203Z,28.30
2019-05-30T17:37:45.487Z,28.20
2019-05-30T17:40:14.994Z,28.10
2019-05-30T17:42:44.283Z,28.00
2019-05-30T17:45:13.805Z,27.90
2019-05-30T17:47:43.060Z,27.80
2019-05-30T17:50:12.892Z,27.60
2019-05-30T17:52:42.177Z,27.50
2019-05-30T17:55:11.788Z,27.30
2019-05-30T17:57:41.124Z,27.10
2019-05-30T18:00:11.902Z,26.90
2019-05-30T18:02:41.194Z,26.70
2019-05-30T18:05:10.983Z,26.40
2019-05-30T18:07:40.255Z,26.10
2019-05-30T18:10:10.157Z,25.70
2019-05-30T18:12:39.531Z,25.50
2019-05-30T18:15:09.699Z,25.30
2019-05-30T18:17:39.083Z,25.20
2019-05-30T18:20:08.884Z,25.00
2019-05-30T18:22:38.289Z,24.80
2019-05-30T18:25:09.975Z,24.60
2019-05-30T18:27:39.239Z,24.50
2019-05-30T18:30:10.793Z,24.30
2019-05-30T18:32:40.157Z,24.10
2019-05-30T18:35:09.964Z,23.90
2019-05-30T18:37:39.554Z,23.80
2019-05-30T18:40:09.537Z,23.70
2019-05-30T18:42:38.805Z,23.50
2019-05-30T18:45:08.292Z,23.40
2019-05-30T18:47:37.672Z,23.30
2019-05-30T18:50:07.411Z,23.10
2019-05-30T18:52:36.879Z,23.00
2019-05-30T18:55:06.826Z,22.90
2019-05-30T18:57:37.367Z,22.70
2019-05-30T19:00:07.574Z,22.70
2019-05-30T19:02:37.167Z,22.50
2019-05-30T19:05:07.750Z,22.40
2019-05-30T19:07:37.314Z,22.30
2019-05-30T19:10:06.890Z,22.30
2019-05-30T19:12:36.620Z,22.10
2019-05-30T19:15:07.659Z,21.90
2019-05-30T19:17:37.034Z,21.80
2019-05-30T19:20:06.403Z,21.70
2019-05-30T19:22:36.427Z,21.60
2019-05-30T19:25:05.929Z,21.40
2019-05-30T19:27:37.986Z,21.30
2019-05-30T19:30:07.115Z,21.10
2019-05-30T19:32:36.967Z,20.90
2019-05-30T19:35:06.777Z,20.80
2019-05-30T19:37:37.408Z,20.60
2019-05-30T19:40:07.609Z,20.50
2019-05-30T19:42:37.888Z,20.40
2019-05-30T19:45:08.583Z,20.30
2019-05-30T19:47:38.778Z,20.20
2019-05-30T19:50:10.401Z,20.10
2019-05-30T19:52:39.720Z,20.00
2019-05-30T19:55:09.661Z,19.90
2019-05-30T19:57:39.936Z,19.80
2019-05-30T20:00:10.352Z,19.70
2019-05-30T20:02:40.522Z,19.60
2019-05-30T20:05:10.182Z,19.50
2019-05-30T20:07:40.782Z,19.50
2019-05-30T20:10:12.292Z,19.40
2019-05-30T20:12:41.664Z,19.30
2019-05-30T20:15:12.304Z,19.20
2019-05-30T20:17:41.944Z,19.10
2019-05-30T20:20:12.775Z,19.00
2019-05-30T20:22:42.376Z,18.90
2019-05-30T20:25:12.639Z,18.80
2019-05-30T20:27:43.125Z,18.80
2019-05-30T20:30:13.343Z,18.70
2019-05-30T20:32:43.272Z,18.60
2019-05-30T20:35:13.822Z,18.50
2019-05-30T20:37:43.274Z,18.50
2019-05-30T20:40:14.224Z,18.40
2019-05-30T20:42:43.492Z,18.40
2019-05-30T20:45:14.727Z,18.40
2019-05-30T20:47:44.491Z,18.30
2019-05-30T20:50:15.167Z,18.20
2019-05-30T20:52:45.707Z,18.10
2019-05-30T20:55:16.766Z,18.00
2019-05-30T20:57:46.842Z,17.90
2019-05-30T21:00:17.991Z,17.90
2019-05-30T21:02:47.291Z,17.90
2019-05-30T21:05:18.004Z,17.80
2019-05-30T21:07:49.126Z,17.80
2019-05-30T21:10:18.543Z,17.70
2019-05-30T21:12:50.705Z,17.60
2019-05-30T21:15:20.211Z,17.50
2019-05-30T21:17:49.728Z,17.40
2019-05-30T21:20:19.166Z,17.30
2019-05-30T21:22:48.567Z,17.30
2019-05-30T21:25:17.863Z,17.30
2019-05-30T21:27:47.379Z,17.20
2019-05-30T21:30:17.255Z,17.20
2019-05-30T21:32:48.368Z,17.10
2019-05-30T21:35:17.761Z,17.00
2019-05-30T21:37:47.905Z,17.00
2019-05-30T21:40:17.872Z,17.00
2019-05-30T21:43:02.765Z,16.90
2019-05-30T21:45:18.547Z,16.90
2019-05-30T21:47:48.930Z,16.80
2019-05-30T21:50:18.649Z,16.80
2019-05-30T21:52:48.105Z,16.80
2019-05-30T21:55:17.426Z,16.80
2019-05-30T21:57:48.000Z,16.70
2019-05-30T22:00:24.089Z,16.70
2019-05-30T22:02:54.851Z,16.60
2019-05-30T22:05:24.227Z,16.60
2019-05-30T22:07:53.515Z,16.50
2019-05-30T22:10:22.828Z,16.40
2019-05-30T22:12:52.100Z,16.30
2019-05-30T22:15:21.533Z,16.20
2019-05-30T22:17:51.910Z,16.10
2019-05-30T22:20:21.313Z,16.00
2019-05-30T22:22:50.880Z,16.00
2019-05-30T22:25:20.303Z,16.00
2019-05-30T22:27:50.559Z,16.10
2019-05-30T22:30:20.128Z,16.10
2019-05-30T22:32:50.679Z,16.10
2019-05-30T22:35:20.115Z,16.10
2019-05-30T22:37:49.388Z,16.20
2019-05-30T22:40:18.794Z,16.20
2019-05-30T22:42:48.186Z,16.20
2019-05-30T22:45:18.113Z,16.10
2019-05-30T22:47:48.448Z,16.00
2019-05-30T22:50:17.825Z,16.00
2019-05-30T22:52:47.128Z,16.00
2019-05-30T22:55:16.427Z,16.00
2019-05-30T22:57:46.411Z,16.00
2019-05-30T23:00:16.116Z,16.00
2019-05-30T23:02:45.883Z,16.00
2019-05-30T23:05:15.148Z,16.00
2019-05-30T23:07:45.285Z,16.00
2019-05-30T23:10:15.575Z,15.90
2019-05-30T23:12:45.859Z,15.90
2019-05-30T23:15:15.235Z,15.80
2019-05-30T23:17:44.615Z,15.70
2019-05-30T23:20:13.891Z,15.70
2019-05-30T23:22:43.201Z,15.70
2019-05-30T23:25:12.927Z,15.70
2019-05-30T23:27:42.231Z,15.70
2019-05-30T23:30:11.524Z,15.80
2019-05-30T23:32:42.199Z,15.80
2019-05-30T23:35:11.763Z,15.70
2019-05-30T23:37:41.077Z,15.70
2019-05-30T23:40:10.650Z,15.60
2019-05-30T23:42:39.979Z,15.60
2019-05-30T23:45:09.459Z,15.50
2019-05-30T23:47:38.758Z,15.50
2019-05-30T23:50:09.293Z,15.50
2019-05-30T23:52:38.675Z,15.50
2019-05-30T23:55:08.027Z,15.50
2019-05-30T23:57:37.287Z,15.50
